createdAt,value
2022-08-07T00:00:40.457Z,15.07
2022-08-07T00:01:43.896Z,15.07
2022-08-07T00:02:44.302Z,15.09
2022-08-07T00:03:40.684Z,15.05
2022-08-07T00:04:40.738Z,15.04
2022-08-07T00:05:39.784Z,14.91
2022-08-07T00:06:45.520Z,14.74
2022-08-07T00:07:41.734Z,14.60
2022-08-07T00:08:40.469Z,14.44
2022-08-07T00:09:40.259Z,14.36
2022-08-07T00:10:48.000Z,14.29
2022-08-07T00:11:53.951Z,14.21
2022-08-07T00:12:43.632Z,14.19
2022-08-07T00:13:44.854Z,14.19
2022-08-07T00:14:40.454Z,14.21
2022-08-07T00:15:46.702Z,14.21
2022-08-07T00:16:40.533Z,14.19
2022-08-07T00:17:39.612Z,14.19
2022-08-07T00:18:39.685Z,14.16
2022-08-07T00:20:01.553Z,14.16
2022-08-07T00:20:40.896Z,14.13
2022-08-07T00:21:56.634Z,14.12
2022-08-07T00:22:42.240Z,14.09
2022-08-07T00:23:41.092Z,14.08
2022-08-07T00:24:40.166Z,14.08
2022-08-07T00:25:41.524Z,14.06
2022-08-07T00:26:59.323Z,14.06
2022-08-07T00:27:52.609Z,14.06
2022-08-07T00:28:45.572Z,14.08
2022-08-07T00:29:40.507Z,14.06
2022-08-07T00:30:39.563Z,14.06
2022-08-07T00:31:41.470Z,14.05
2022-08-07T00:32:39.824Z,14.08
2022-08-07T00:33:39.834Z,14.08
2022-08-07T00:34:39.927Z,14.08
2022-08-07T00:35:40.002Z,14.13
2022-08-07T00:36:42.994Z,14.17
2022-08-07T00:37:47.790Z,14.19
2022-08-07T00:38:41.239Z,14.24
2022-08-07T00:39:44.818Z,14.23
2022-08-07T00:40:40.869Z,14.23
2022-08-07T00:41:45.324Z,14.21
2022-08-07T00:42:40.546Z,14.21
2022-08-07T00:43:58.910Z,14.23
2022-08-07T00:44:41.655Z,14.19
2022-08-07T00:45:39.774Z,14.16
2022-08-07T00:46:39.919Z,14.13
2022-08-07T00:48:10.143Z,14.16
2022-08-07T00:48:42.237Z,14.17
2022-08-07T00:50:20.671Z,14.19
2022-08-07T00:50:50.242Z,14.16
2022-08-07T00:51:58.216Z,14.19
2022-08-07T00:52:40.317Z,14.19
2022-08-07T00:53:50.435Z,14.19
2022-08-07T00:54:41.505Z,14.21
2022-08-07T00:56:00.340Z,14.23
2022-08-07T00:56:40.630Z,14.23
2022-08-07T00:57:44.447Z,14.26
2022-08-07T00:58:40.797Z,14.27
2022-08-07T00:59:39.899Z,14.27
2022-08-07T01:00:39.065Z,14.30
2022-08-07T01:01:44.092Z,14.27
2022-08-07T01:02:39.728Z,14.20
2022-08-07T01:03:55.546Z,14.17
2022-08-07T01:04:43.453Z,14.09
2022-08-07T01:05:39.426Z,14.05
2022-08-07T01:06:40.472Z,14.05
2022-08-07T01:07:39.522Z,14.04
2022-08-07T01:08:51.262Z,14.01
2022-08-07T01:10:07.211Z,13.99
2022-08-07T01:10:40.781Z,13.99
2022-08-07T01:12:27.804Z,14.05
2022-08-07T01:12:39.837Z,14.02
2022-08-07T01:13:39.894Z,14.05
2022-08-07T01:14:39.957Z,14.06
2022-08-07T01:16:01.016Z,14.06
2022-08-07T01:16:42.941Z,14.05
2022-08-07T01:17:40.034Z,14.02
2022-08-07T01:18:39.262Z,14.01
2022-08-07T01:19:39.907Z,13.98
2022-08-07T01:20:43.151Z,13.91
2022-08-07T01:21:39.490Z,13.90
2022-08-07T01:22:46.833Z,13.84
2022-08-07T01:23:42.694Z,13.81
2022-08-07T01:24:40.658Z,13.76
2022-08-07T01:25:40.326Z,13.73
2022-08-07T01:26:42.066Z,13.72
2022-08-07T01:27:41.161Z,13.71
2022-08-07T01:28:39.929Z,13.76
2022-08-07T01:29:38.982Z,13.81
2022-08-07T01:30:39.077Z,13.80
2022-08-07T01:31:42.871Z,13.81
2022-08-07T01:32:40.768Z,13.80
2022-08-07T01:33:55.430Z,13.80
2022-08-07T01:34:40.414Z,13.79
2022-08-07T01:35:53.828Z,13.75
2022-08-07T01:36:40.592Z,13.73
2022-08-07T01:37:38.548Z,13.69
2022-08-07T01:38:38.663Z,13.72
2022-08-07T01:39:40.702Z,13.66
2022-08-07T01:40:39.752Z,13.63
2022-08-07T01:41:38.843Z,13.61
2022-08-07T01:42:58.819Z,13.54
2022-08-07T01:43:40.032Z,13.51
2022-08-07T01:44:39.101Z,13.46
2022-08-07T01:45:39.937Z,13.44
2022-08-07T01:46:39.275Z,13.44
2022-08-07T01:48:19.023Z,13.43
2022-08-07T01:48:41.142Z,13.43
2022-08-07T01:49:38.495Z,13.46
2022-08-07T01:50:43.200Z,13.46
2022-08-07T01:52:02.074Z,13.47
2022-08-07T01:52:39.695Z,13.47
2022-08-07T01:54:08.541Z,13.48
2022-08-07T01:54:39.921Z,13.46
2022-08-07T01:55:38.939Z,13.47
2022-08-07T01:56:39.029Z,13.47
2022-08-07T01:58:05.691Z,13.46
2022-08-07T01:58:41.073Z,13.43
2022-08-07T01:59:42.186Z,13.43
2022-08-07T02:00:38.832Z,13.39
2022-08-07T02:02:00.014Z,13.36
2022-08-07T02:03:18.299Z,13.35
2022-08-07T02:03:48.925Z,13.32
2022-08-07T02:04:39.618Z,13.35
2022-08-07T02:05:48.072Z,13.29
2022-08-07T02:06:39.756Z,13.28
2022-08-07T02:07:50.013Z,13.24
2022-08-07T02:08:39.883Z,13.14
2022-08-07T02:09:52.773Z,13.09
2022-08-07T02:10:42.113Z,13.04
2022-08-07T02:12:04.170Z,12.96
2022-08-07T02:12:39.138Z,12.95
2022-08-07T02:13:57.713Z,12.95
2022-08-07T02:14:40.827Z,12.98
2022-08-07T02:15:38.381Z,12.99
2022-08-07T02:16:38.597Z,13.07
2022-08-07T02:17:38.528Z,13.09
2022-08-07T02:18:38.613Z,13.09
2022-08-07T02:20:07.470Z,13.10
2022-08-07T02:20:39.760Z,13.10
2022-08-07T02:21:55.879Z,13.09
2022-08-07T02:22:41.498Z,13.09
2022-08-07T02:23:37.994Z,13.04
2022-08-07T02:24:38.079Z,13.07
2022-08-07T02:26:26.721Z,13.13
2022-08-07T02:26:44.459Z,13.21
2022-08-07T02:27:41.121Z,13.19
2022-08-07T02:28:38.397Z,13.19
2022-08-07T02:29:48.899Z,13.22
2022-08-07T02:30:39.565Z,13.22
2022-08-07T02:31:38.660Z,13.19
2022-08-07T02:33:00.124Z,13.13
2022-08-07T02:33:57.310Z,13.04
2022-08-07T02:34:38.852Z,13.01
2022-08-07T02:36:29.500Z,13.01
2022-08-07T02:36:39.013Z,12.95
2022-08-07T02:37:38.091Z,12.91
2022-08-07T02:38:39.147Z,12.88
2022-08-07T02:39:43.383Z,12.81
2022-08-07T02:40:39.329Z,12.79
2022-08-07T02:41:38.342Z,12.76
2022-08-07T02:42:38.587Z,12.74
2022-08-07T02:43:39.733Z,12.70
2022-08-07T02:44:38.551Z,12.71
2022-08-07T02:45:58.028Z,12.71
2022-08-07T02:46:38.685Z,12.71
2022-08-07T02:47:45.070Z,12.73
2022-08-07T02:48:38.851Z,12.71
2022-08-07T02:49:56.497Z,12.74
2022-08-07T02:50:39.072Z,12.73
2022-08-07T02:51:49.533Z,12.76
2022-08-07T02:52:38.896Z,12.76
2022-08-07T02:53:38.457Z,12.76
2022-08-07T02:54:38.085Z,12.79
2022-08-07T02:56:03.291Z,12.79
2022-08-07T02:56:39.292Z,12.84
2022-08-07T02:57:38.402Z,12.88
2022-08-07T02:58:39.712Z,12.89
2022-08-07T02:59:38.579Z,12.89
2022-08-07T03:00:39.179Z,12.89
2022-08-07T03:01:40.270Z,12.89
2022-08-07T03:02:37.884Z,12.87
2022-08-07T03:03:49.964Z,12.89
2022-08-07T03:04:39.089Z,12.89
2022-08-07T03:05:38.190Z,12.88
2022-08-07T03:06:38.752Z,12.88
2022-08-07T03:07:58.859Z,12.85
2022-08-07T03:08:38.406Z,12.87
2022-08-07T03:09:43.628Z,12.88
2022-08-07T03:10:41.042Z,12.87
2022-08-07T03:11:51.700Z,12.81
2022-08-07T03:12:38.761Z,12.81
2022-08-07T03:13:38.669Z,12.80
2022-08-07T03:14:37.967Z,12.74
2022-08-07T03:15:54.099Z,12.74
2022-08-07T03:16:38.460Z,12.71
2022-08-07T03:17:53.932Z,12.67
2022-08-07T03:18:38.328Z,12.62
2022-08-07T03:19:37.618Z,12.59
2022-08-07T03:20:37.628Z,12.55
2022-08-07T03:21:37.668Z,12.51
2022-08-07T03:22:38.780Z,12.48
2022-08-07T03:24:19.662Z,12.40
2022-08-07T03:24:39.008Z,12.36
2022-08-07T03:25:40.357Z,12.33
2022-08-07T03:26:51.314Z,12.23
2022-08-07T03:27:58.719Z,12.21
2022-08-07T03:28:39.595Z,12.18
2022-08-07T03:29:37.749Z,12.12
2022-08-07T03:30:37.660Z,12.07
2022-08-07T03:31:42.549Z,12.07
2022-08-07T03:32:38.901Z,11.98
2022-08-07T03:33:40.192Z,11.96
2022-08-07T03:34:39.168Z,11.93
2022-08-07T03:35:43.384Z,11.84
2022-08-07T03:36:38.307Z,11.85
2022-08-07T03:37:46.463Z,11.82
2022-08-07T03:38:38.507Z,11.81
2022-08-07T03:39:58.984Z,11.74
2022-08-07T03:40:38.789Z,11.75
2022-08-07T03:41:42.288Z,11.74
2022-08-07T03:42:37.981Z,11.70
2022-08-07T03:43:37.069Z,11.63
2022-08-07T03:44:37.170Z,11.62
2022-08-07T03:45:39.617Z,11.62
2022-08-07T03:47:11.031Z,11.57
2022-08-07T03:47:45.181Z,11.51
2022-08-07T03:49:01.907Z,11.49
2022-08-07T03:49:38.740Z,11.54
2022-08-07T03:50:36.803Z,11.57
2022-08-07T03:51:47.389Z,11.60
2022-08-07T03:52:37.981Z,11.60
2022-08-07T03:54:05.772Z,11.59
2022-08-07T03:54:55.159Z,11.49
2022-08-07T03:55:46.072Z,11.44
2022-08-07T03:56:38.381Z,11.33
2022-08-07T03:58:33.841Z,11.36
2022-08-07T03:59:08.678Z,11.35
2022-08-07T03:59:37.611Z,11.36
2022-08-07T04:00:37.760Z,11.39
2022-08-07T04:01:37.858Z,11.39
2022-08-07T04:02:41.119Z,11.48
2022-08-07T04:03:49.734Z,11.44
2022-08-07T04:04:38.100Z,11.48
2022-08-07T04:05:39.652Z,11.44
2022-08-07T04:06:38.711Z,11.41
2022-08-07T04:07:42.605Z,11.38
2022-08-07T04:08:37.452Z,11.35
2022-08-07T04:09:45.218Z,11.35
2022-08-07T04:10:38.820Z,11.31
2022-08-07T04:12:15.586Z,11.33
2022-08-07T04:12:38.924Z,11.30
2022-08-07T04:14:10.942Z,11.28
2022-08-07T04:14:45.855Z,11.30
2022-08-07T04:15:38.150Z,11.31
2022-08-07T04:16:37.251Z,11.35
2022-08-07T04:18:31.917Z,11.38
2022-08-07T04:18:59.546Z,11.39
2022-08-07T04:19:51.903Z,11.41
2022-08-07T04:20:37.606Z,11.41
2022-08-07T04:21:37.894Z,11.45
2022-08-07T04:22:53.706Z,11.46
2022-08-07T04:23:43.973Z,11.45
2022-08-07T04:25:08.905Z,11.44
2022-08-07T04:25:39.289Z,11.44
2022-08-07T04:26:36.239Z,11.39
2022-08-07T04:27:43.977Z,11.38
2022-08-07T04:28:37.473Z,11.31
2022-08-07T04:29:48.764Z,11.30
2022-08-07T04:30:55.331Z,11.28
2022-08-07T04:32:02.149Z,11.27
2022-08-07T04:32:37.922Z,11.23
2022-08-07T04:33:37.013Z,11.21
2022-08-07T04:34:39.520Z,11.20
2022-08-07T04:35:36.169Z,11.20
2022-08-07T04:36:36.274Z,11.21
2022-08-07T04:37:52.882Z,11.20
2022-08-07T04:38:37.561Z,11.21
2022-08-07T04:39:36.681Z,11.19
2022-08-07T04:40:43.852Z,11.21
2022-08-07T04:41:37.775Z,11.21
2022-08-07T04:42:36.856Z,11.17
2022-08-07T04:44:11.994Z,11.13
2022-08-07T04:44:37.036Z,11.16
2022-08-07T04:45:57.269Z,11.20
2022-08-07T04:46:59.524Z,11.21
2022-08-07T04:48:02.821Z,11.23
2022-08-07T04:48:37.436Z,11.24
2022-08-07T04:49:38.398Z,11.24
2022-08-07T04:50:36.995Z,11.21
2022-08-07T04:51:37.643Z,11.21
2022-08-07T04:52:36.765Z,11.23
2022-08-07T04:54:01.162Z,11.27
2022-08-07T04:54:36.990Z,11.28
2022-08-07T04:58:09.807Z,11.30
2022-08-07T04:58:10.351Z,11.38
2022-08-07T04:58:16.094Z,11.33
2022-08-07T04:59:07.681Z,11.41
2022-08-07T05:00:12.874Z,11.42
2022-08-07T05:00:37.616Z,11.45
2022-08-07T05:01:36.707Z,11.45
2022-08-07T05:02:36.696Z,11.46
2022-08-07T05:04:00.234Z,11.46
2022-08-07T05:04:36.797Z,11.48
2022-08-07T05:05:54.553Z,11.49
2022-08-07T05:06:43.179Z,11.51
2022-08-07T05:07:48.627Z,11.56
2022-08-07T05:08:58.864Z,11.64
2022-08-07T05:09:46.369Z,11.70
2022-08-07T05:10:37.433Z,11.81
2022-08-07T05:11:57.422Z,11.87
2022-08-07T05:12:37.639Z,11.94
2022-08-07T05:14:53.516Z,12.03
2022-08-07T05:14:54.377Z,11.98
2022-08-07T05:15:36.877Z,12.04
2022-08-07T05:16:35.970Z,12.07
2022-08-07T05:17:52.578Z,12.08
2022-08-07T05:18:37.191Z,12.15
2022-08-07T05:19:44.922Z,12.21
2022-08-07T05:20:37.348Z,12.26
2022-08-07T05:21:59.942Z,12.31
2022-08-07T05:22:37.518Z,12.37
2022-08-07T05:23:35.757Z,12.40
2022-08-07T05:24:40.653Z,12.41
2022-08-07T05:26:10.490Z,12.41
2022-08-07T05:26:37.899Z,12.41
2022-08-07T05:28:02.793Z,12.41
2022-08-07T05:28:37.079Z,12.43
2022-08-07T05:29:48.029Z,12.43
2022-08-07T05:30:37.305Z,12.43
2022-08-07T05:31:37.918Z,12.43
2022-08-07T05:32:35.463Z,12.48
2022-08-07T05:33:36.888Z,12.51
2022-08-07T05:34:35.645Z,12.54
2022-08-07T05:35:41.938Z,12.52
2022-08-07T05:36:36.839Z,12.54
2022-08-07T05:37:40.773Z,12.54
2022-08-07T05:39:00.168Z,12.56
2022-08-07T05:40:06.439Z,12.58
2022-08-07T05:40:37.283Z,12.61
2022-08-07T05:42:02.786Z,12.63
2022-08-07T05:42:37.052Z,12.63
2022-08-07T05:43:43.363Z,12.70
2022-08-07T05:44:36.479Z,12.74
2022-08-07T05:45:47.455Z,12.79
2022-08-07T05:46:36.661Z,12.84
2022-08-07T05:47:37.873Z,12.88
2022-08-07T05:48:36.785Z,12.91
2022-08-07T05:49:40.794Z,12.92
2022-08-07T05:50:35.956Z,12.95
2022-08-07T05:51:40.062Z,12.99
2022-08-07T05:52:36.169Z,13.04
2022-08-07T05:54:12.983Z,13.06
2022-08-07T05:54:53.314Z,13.09
2022-08-07T05:56:01.949Z,13.12
2022-08-07T05:56:36.397Z,13.17
2022-08-07T05:57:38.038Z,13.24
2022-08-07T05:58:37.423Z,13.27
2022-08-07T05:59:47.269Z,13.31
2022-08-07T06:00:36.724Z,13.36
2022-08-07T06:01:36.155Z,13.39
2022-08-07T06:02:35.851Z,13.44
2022-08-07T06:03:53.287Z,13.46
2022-08-07T06:04:35.985Z,13.46
2022-08-07T06:05:35.026Z,13.48
2022-08-07T06:06:35.098Z,13.51
2022-08-07T06:08:13.747Z,13.53
2022-08-07T06:08:40.622Z,13.57
2022-08-07T06:10:04.400Z,13.63
2022-08-07T06:10:36.396Z,13.65
2022-08-07T06:11:35.484Z,13.69
2022-08-07T06:12:35.706Z,13.71
2022-08-07T06:14:12.077Z,13.73
2022-08-07T06:14:36.718Z,13.79
2022-08-07T06:15:42.392Z,13.80
2022-08-07T06:16:35.872Z,13.80
2022-08-07T06:17:37.358Z,13.83
2022-08-07T06:18:35.914Z,13.84
2022-08-07T06:19:51.921Z,13.87
2022-08-07T06:20:51.074Z,13.90
2022-08-07T06:22:16.134Z,13.90
2022-08-07T06:22:40.136Z,13.90
2022-08-07T06:24:38.625Z,13.93
2022-08-07T06:24:45.541Z,13.94
2022-08-07T06:25:36.533Z,13.98
2022-08-07T06:26:35.698Z,13.99
2022-08-07T06:27:43.990Z,14.02
2022-08-07T06:28:35.689Z,14.05
2022-08-07T06:29:34.862Z,14.09
2022-08-07T06:30:37.378Z,14.16
2022-08-07T06:31:47.345Z,14.16
2022-08-07T06:32:35.967Z,14.17
2022-08-07T06:33:35.027Z,14.23
2022-08-07T06:34:36.067Z,14.21
2022-08-07T06:35:45.518Z,14.24
2022-08-07T06:36:36.292Z,14.24
2022-08-07T06:37:43.538Z,14.26
2022-08-07T06:38:36.435Z,14.29
2022-08-07T06:40:17.507Z,14.30
2022-08-07T06:40:35.650Z,14.34
2022-08-07T06:42:01.895Z,14.35
2022-08-07T06:42:35.763Z,14.38
2022-08-07T06:43:39.255Z,14.39
2022-08-07T06:44:36.641Z,14.42
2022-08-07T06:45:35.636Z,14.42
2022-08-07T06:46:35.617Z,14.46
2022-08-07T06:47:38.708Z,14.52
2022-08-07T06:48:36.251Z,14.53
2022-08-07T06:49:35.275Z,14.56
2022-08-07T06:50:36.330Z,14.60
2022-08-07T06:51:35.308Z,14.67
2022-08-07T06:52:36.598Z,14.69
2022-08-07T06:55:28.412Z,14.74
2022-08-07T06:55:33.208Z,14.79
2022-08-07T06:55:52.651Z,14.80
2022-08-07T06:56:35.802Z,14.85
2022-08-07T06:57:43.717Z,14.86
2022-08-07T06:58:35.961Z,14.90
2022-08-07T07:00:12.029Z,14.94
2022-08-07T07:00:36.162Z,14.95
2022-08-07T07:01:43.791Z,14.98
2022-08-07T07:02:48.475Z,15.03
2022-08-07T07:03:47.912Z,15.07
2022-08-07T07:04:35.352Z,15.07
2022-08-07T07:06:04.074Z,15.11
2022-08-07T07:06:39.443Z,15.15
2022-08-07T07:07:59.244Z,15.19
2022-08-07T07:08:35.681Z,15.22
2022-08-07T07:09:36.255Z,15.28
2022-08-07T07:10:34.745Z,15.33
2022-08-07T07:12:08.496Z,15.38
2022-08-07T07:12:35.925Z,15.43
2022-08-07T07:13:55.872Z,15.48
2022-08-07T07:14:37.492Z,15.52
2022-08-07T07:15:36.132Z,15.58
2022-08-07T07:16:34.091Z,15.59
2022-08-07T07:17:39.138Z,15.64
2022-08-07T07:18:47.214Z,15.67
2022-08-07T07:19:57.571Z,15.68
2022-08-07T07:20:35.847Z,15.71
2022-08-07T07:22:04.226Z,15.73
2022-08-07T07:22:39.837Z,15.73
2022-08-07T07:24:10.843Z,15.74
2022-08-07T07:24:37.584Z,15.78
2022-08-07T07:26:34.427Z,15.80
2022-08-07T07:26:37.168Z,15.81
2022-08-07T07:27:35.561Z,15.86
2022-08-07T07:29:22.701Z,15.89
2022-08-07T07:29:39.573Z,15.91
2022-08-07T07:30:38.475Z,15.93
2022-08-07T07:31:39.961Z,15.95
2022-08-07T07:32:35.013Z,15.99
2022-08-07T07:33:34.071Z,16.03
2022-08-07T07:34:34.106Z,16.07
2022-08-07T07:35:43.739Z,16.10
2022-08-07T07:36:35.249Z,16.11
2022-08-07T07:37:49.604Z,16.16
2022-08-07T07:38:36.028Z,16.22
2022-08-07T07:39:35.822Z,16.27
2022-08-07T07:40:35.529Z,16.32
2022-08-07T07:41:50.450Z,16.37
2022-08-07T07:42:35.614Z,16.41
2022-08-07T07:43:47.842Z,16.48
2022-08-07T07:44:34.681Z,16.51
2022-08-07T07:46:37.565Z,16.62
2022-08-07T07:46:37.922Z,16.62
2022-08-07T07:47:52.198Z,16.66
2022-08-07T07:48:36.244Z,16.69
2022-08-07T07:50:34.944Z,16.73
2022-08-07T07:50:40.070Z,16.73
2022-08-07T07:51:58.558Z,16.78
2022-08-07T07:52:35.182Z,16.82
2022-08-07T07:53:34.793Z,16.87
2022-08-07T07:54:34.319Z,16.92
2022-08-07T07:55:37.080Z,16.98
2022-08-07T07:56:34.429Z,17.02
2022-08-07T07:57:53.316Z,17.09
2022-08-07T07:58:40.368Z,17.12
2022-08-07T07:59:52.062Z,17.15
2022-08-07T08:00:34.595Z,17.17
2022-08-07T08:02:03.857Z,17.17
2022-08-07T08:02:35.321Z,17.20
2022-08-07T08:04:10.201Z,17.21
2022-08-07T08:04:34.833Z,17.22
2022-08-07T08:05:54.207Z,17.27
2022-08-07T08:06:34.887Z,17.30
2022-08-07T08:07:35.745Z,17.35
2022-08-07T08:08:36.884Z,17.40
2022-08-07T08:09:52.106Z,17.43
2022-08-07T08:10:38.241Z,17.51
2022-08-07T08:11:59.951Z,17.51
2022-08-07T08:12:58.818Z,17.55
2022-08-07T08:13:43.793Z,17.62
2022-08-07T08:14:36.348Z,17.66
2022-08-07T08:15:57.641Z,17.70
2022-08-07T08:16:35.113Z,17.73
2022-08-07T08:18:34.627Z,17.83
2022-08-07T08:18:36.864Z,17.77
2022-08-07T08:20:16.942Z,17.89
2022-08-07T08:20:34.716Z,17.96
2022-08-07T08:22:02.699Z,18.02
2022-08-07T08:22:34.841Z,18.05
2022-08-07T08:23:34.814Z,18.07
2022-08-07T08:24:36.159Z,18.17
2022-08-07T08:25:43.034Z,18.23
2022-08-07T08:26:35.106Z,18.29
2022-08-07T08:27:33.633Z,18.32
2022-08-07T08:28:38.259Z,18.36
2022-08-07T08:29:34.260Z,18.41
2022-08-07T08:30:34.873Z,18.46
2022-08-07T08:32:17.042Z,18.49
2022-08-07T08:32:38.504Z,18.54
2022-08-07T08:33:33.479Z,18.59
2022-08-07T08:34:33.567Z,18.65
2022-08-07T08:35:39.378Z,18.72
2022-08-07T08:36:34.652Z,18.76
2022-08-07T08:38:00.651Z,18.84
2022-08-07T08:38:38.636Z,18.90
2022-08-07T08:39:39.272Z,18.96
2022-08-07T08:40:34.847Z,19.01
2022-08-07T08:41:58.440Z,19.05
2022-08-07T08:42:34.927Z,19.07
2022-08-07T08:43:42.978Z,19.13
2022-08-07T08:44:41.284Z,19.17
2022-08-07T08:45:41.849Z,19.24
2022-08-07T08:46:34.072Z,19.28
2022-08-07T08:47:34.367Z,19.28
2022-08-07T08:48:36.161Z,19.23
2022-08-07T08:49:46.389Z,19.21
2022-08-07T08:50:38.838Z,19.16
2022-08-07T08:51:49.392Z,19.12
2022-08-07T08:52:35.945Z,19.13
2022-08-07T08:53:34.344Z,19.15
2022-08-07T08:54:33.448Z,19.21
2022-08-07T08:55:54.482Z,19.30
2022-08-07T08:56:35.919Z,19.35
2022-08-07T08:57:33.977Z,19.46
2022-08-07T08:58:33.555Z,19.53
2022-08-07T08:59:42.391Z,19.65
2022-08-07T09:00:34.547Z,19.76
2022-08-07T09:01:40.121Z,19.82
2022-08-07T09:02:37.398Z,19.85
2022-08-07T09:03:47.437Z,19.85
2022-08-07T09:04:33.662Z,19.90
2022-08-07T09:05:37.775Z,19.92
2022-08-07T09:06:33.751Z,19.98
2022-08-07T09:07:34.199Z,20.01
2022-08-07T09:08:33.851Z,20.04
2022-08-07T09:09:36.514Z,20.07
2022-08-07T09:10:32.892Z,20.13
2022-08-07T09:11:50.591Z,20.19
2022-08-07T09:12:33.954Z,20.23
2022-08-07T09:13:37.044Z,20.35
2022-08-07T09:14:34.043Z,20.40
2022-08-07T09:16:23.931Z,20.40
2022-08-07T09:16:34.094Z,20.37
2022-08-07T09:17:33.934Z,20.35
2022-08-07T09:18:34.969Z,20.41
2022-08-07T09:19:51.504Z,20.41
2022-08-07T09:20:35.448Z,20.40
2022-08-07T09:21:57.857Z,20.38
2022-08-07T09:24:28.402Z,20.38
2022-08-07T09:24:31.403Z,20.40
2022-08-07T09:24:59.403Z,20.42
2022-08-07T09:25:33.385Z,20.53
2022-08-07T09:26:32.412Z,20.61
2022-08-07T09:27:54.713Z,20.72
2022-08-07T09:30:04.644Z,20.82
2022-08-07T09:30:05.876Z,20.94
2022-08-07T09:30:33.430Z,21.08
2022-08-07T09:31:33.669Z,21.21
2022-08-07T09:32:33.521Z,21.33
2022-08-07T09:33:53.163Z,21.40
2022-08-07T09:34:33.506Z,21.46
2022-08-07T09:36:04.300Z,21.53
2022-08-07T09:36:36.960Z,21.56
2022-08-07T09:37:47.743Z,21.59
2022-08-07T09:38:33.576Z,21.55
2022-08-07T09:39:53.739Z,21.40
2022-08-07T09:40:33.633Z,21.21
2022-08-07T09:41:36.201Z,21.15
2022-08-07T09:42:33.904Z,21.09
2022-08-07T09:43:40.363Z,21.12
2022-08-07T09:45:03.535Z,21.15
2022-08-07T09:47:23.903Z,21.22
2022-08-07T09:47:50.580Z,21.30
2022-08-07T09:47:56.118Z,21.40
2022-08-07T09:48:50.040Z,21.45
2022-08-07T09:50:02.723Z,21.52
2022-08-07T09:50:33.847Z,21.56
2022-08-07T09:52:16.614Z,21.59
2022-08-07T09:52:35.315Z,21.63
2022-08-07T09:53:40.896Z,21.70
2022-08-07T09:54:33.926Z,21.75
2022-08-07T09:56:02.692Z,21.83
2022-08-07T09:56:39.275Z,21.90
2022-08-07T09:57:32.896Z,21.99
2022-08-07T09:58:32.810Z,22.11
2022-08-07T09:59:44.358Z,22.19
2022-08-07T10:00:32.897Z,22.31
2022-08-07T10:01:52.630Z,22.39
2022-08-07T10:02:32.901Z,22.42
2022-08-07T10:04:05.661Z,22.48
2022-08-07T10:04:33.473Z,22.51
2022-08-07T10:05:59.566Z,22.54
2022-08-07T10:06:33.049Z,22.59
2022-08-07T10:07:32.032Z,22.59
2022-08-07T10:08:33.067Z,22.63
2022-08-07T10:09:42.621Z,22.57
2022-08-07T10:10:53.845Z,22.52
2022-08-07T10:12:02.693Z,22.61
2022-08-07T10:12:33.106Z,22.69
2022-08-07T10:14:00.484Z,22.81
2022-08-07T10:14:33.169Z,22.74
2022-08-07T10:15:37.777Z,22.69
2022-08-07T10:16:33.210Z,22.70
2022-08-07T10:18:02.746Z,22.74
2022-08-07T10:18:33.305Z,22.81
2022-08-07T10:19:32.283Z,22.94
2022-08-07T10:20:33.282Z,23.06
2022-08-07T10:22:14.089Z,23.15
2022-08-07T10:22:36.780Z,23.21
2022-08-07T10:24:05.506Z,23.21
2022-08-07T10:24:39.683Z,23.23
2022-08-07T10:25:42.536Z,23.23
2022-08-07T10:26:33.373Z,23.16
2022-08-07T10:27:46.461Z,23.16
2022-08-07T10:28:33.405Z,23.18
2022-08-07T10:29:32.417Z,23.25
2022-08-07T10:30:32.442Z,23.26
2022-08-07T10:31:38.510Z,23.23
2022-08-07T10:32:36.847Z,23.29
2022-08-07T10:34:06.969Z,23.41
2022-08-07T10:34:33.409Z,23.45
2022-08-07T10:35:56.059Z,23.54
2022-08-07T10:36:36.263Z,23.59
2022-08-07T10:38:00.081Z,23.67
2022-08-07T10:38:42.259Z,23.75
2022-08-07T10:39:42.144Z,23.84
2022-08-07T10:40:32.529Z,23.78
2022-08-07T10:41:46.242Z,23.69
2022-08-07T10:42:36.665Z,23.68
2022-08-07T10:43:34.799Z,23.74
2022-08-07T10:44:38.296Z,23.79
2022-08-07T10:45:44.599Z,23.75
2022-08-07T10:46:32.543Z,23.59
2022-08-07T10:47:50.664Z,23.54
2022-08-07T10:48:34.837Z,23.37
2022-08-07T10:49:49.784Z,23.25
2022-08-07T10:50:32.565Z,23.14
2022-08-07T10:51:57.538Z,23.04
2022-08-07T10:52:33.909Z,23.00
2022-08-07T10:53:44.247Z,23.06
2022-08-07T10:54:32.658Z,23.15
2022-08-07T10:55:37.921Z,23.26
2022-08-07T10:56:32.691Z,23.34
2022-08-07T10:57:34.454Z,23.44
2022-08-07T10:58:33.111Z,23.45
2022-08-07T10:59:31.913Z,23.42
2022-08-07T11:00:36.779Z,23.32
2022-08-07T11:01:35.328Z,23.29
2022-08-07T11:02:34.348Z,23.25
2022-08-07T11:03:37.452Z,23.29
2022-08-07T11:04:37.511Z,23.39
2022-08-07T11:05:35.749Z,23.62
2022-08-07T11:06:32.917Z,23.82
2022-08-07T11:07:59.704Z,24.05
2022-08-07T11:08:32.924Z,24.15
2022-08-07T11:10:08.773Z,24.30
2022-08-07T11:10:32.885Z,24.44
2022-08-07T11:11:35.637Z,24.52
2022-08-07T11:12:35.328Z,24.64
2022-08-07T11:14:44.810Z,24.86
2022-08-07T11:14:46.242Z,24.75
2022-08-07T11:15:32.309Z,24.97
2022-08-07T11:16:30.997Z,25.01
2022-08-07T11:17:43.344Z,24.86
2022-08-07T11:18:32.043Z,24.68
2022-08-07T11:19:31.031Z,24.44
2022-08-07T11:20:31.014Z,24.36
2022-08-07T11:21:32.085Z,24.26
2022-08-07T11:22:37.019Z,24.14
2022-08-07T11:23:38.444Z,23.97
2022-08-07T11:24:32.038Z,24.02
2022-08-07T11:25:31.023Z,24.11
2022-08-07T11:26:32.108Z,24.08
2022-08-07T11:28:00.904Z,24.05
2022-08-07T11:28:32.062Z,24.15
2022-08-07T11:29:41.819Z,24.36
2022-08-07T11:30:42.004Z,24.48
2022-08-07T11:31:34.869Z,24.51
2022-08-07T11:32:31.124Z,24.52
2022-08-07T11:33:31.153Z,24.59
2022-08-07T11:34:32.149Z,24.68
2022-08-07T11:35:31.157Z,24.66
2022-08-07T11:36:31.298Z,24.64
2022-08-07T11:37:38.546Z,24.74
2022-08-07T11:38:32.178Z,24.92
2022-08-07T11:39:59.057Z,25.05
2022-08-07T11:40:32.282Z,25.16
2022-08-07T11:42:01.596Z,25.29
2022-08-07T11:42:32.239Z,25.36
2022-08-07T11:43:54.920Z,25.44
2022-08-07T11:44:32.230Z,25.49
2022-08-07T11:45:36.068Z,25.44
2022-08-07T11:46:32.230Z,25.38
2022-08-07T11:47:38.670Z,25.36
2022-08-07T11:48:32.223Z,25.38
2022-08-07T11:50:18.544Z,25.48
2022-08-07T11:50:33.461Z,25.64
2022-08-07T11:51:41.464Z,25.67
2022-08-07T11:52:37.525Z,25.59
2022-08-07T11:53:35.239Z,25.42
2022-08-07T11:54:31.300Z,25.24
2022-08-07T11:56:25.274Z,25.11
2022-08-07T11:56:34.290Z,25.01
2022-08-07T11:58:00.467Z,24.98
2022-08-07T11:58:33.370Z,24.92
2022-08-07T12:00:10.576Z,24.90
2022-08-07T12:00:31.365Z,24.90
2022-08-07T12:01:59.275Z,24.98
2022-08-07T12:02:32.936Z,25.16
2022-08-07T12:03:44.283Z,25.31
2022-08-07T12:04:31.455Z,25.34
2022-08-07T12:05:47.438Z,25.35
2022-08-07T12:06:39.027Z,25.49
2022-08-07T12:07:39.089Z,25.63
2022-08-07T12:08:35.067Z,25.76
2022-08-07T12:09:31.650Z,25.78
2022-08-07T12:10:30.634Z,25.78
2022-08-07T12:11:32.185Z,25.61
2022-08-07T12:12:30.625Z,25.42
2022-08-07T12:13:37.141Z,25.26
2022-08-07T12:14:31.635Z,25.19
2022-08-07T12:15:46.454Z,25.35
2022-08-07T12:16:31.710Z,25.63
2022-08-07T12:17:33.574Z,25.89
2022-08-07T12:18:30.731Z,26.08
2022-08-07T12:19:35.677Z,26.27
2022-08-07T12:20:32.558Z,26.38
2022-08-07T12:21:55.693Z,26.34
2022-08-07T12:22:37.425Z,26.41
2022-08-07T12:24:06.047Z,26.42
2022-08-07T12:24:37.775Z,26.39
2022-08-07T12:26:03.422Z,26.46
2022-08-07T12:26:40.552Z,26.38
2022-08-07T12:28:05.777Z,26.39
2022-08-07T12:28:31.808Z,26.39
2022-08-07T12:29:38.016Z,26.31
2022-08-07T12:30:31.831Z,26.34
2022-08-07T12:31:52.972Z,26.27
2022-08-07T12:32:33.815Z,26.41
2022-08-07T12:34:00.603Z,26.49
2022-08-07T12:34:31.861Z,26.57
2022-08-07T12:35:30.871Z,26.66
2022-08-07T12:36:33.287Z,26.73
2022-08-07T12:38:09.509Z,26.84
2022-08-07T12:38:42.701Z,27.01
2022-08-07T12:39:42.263Z,27.16
2022-08-07T12:40:47.348Z,27.23
2022-08-07T12:41:49.818Z,27.28
2022-08-07T12:42:32.200Z,27.40
2022-08-07T12:44:01.994Z,27.50
2022-08-07T12:44:30.861Z,27.53
2022-08-07T12:45:29.833Z,27.35
2022-08-07T12:46:32.555Z,26.90
2022-08-07T12:47:30.769Z,26.73
2022-08-07T12:48:51.847Z,26.75
2022-08-07T12:49:48.494Z,26.76
2022-08-07T12:50:39.346Z,26.61
2022-08-07T12:51:46.692Z,26.66
2022-08-07T12:52:34.037Z,26.79